Time;durP1;ratioP1;P1;durP2;ratioP2;P2;SDS_P1;SDS_P2;PMS_P1;PMS_P2;Temp;Humidity;BMP_temperature;BMP_pressure;BME280_temperature;BME280_humidity;BME280_pressure;Samples;Min_cycle;Max_cycle;Signal;HPM_P1;HPM_P2
2022/09/14 00:00:41;;;;;;;20.85;2.65;;;;;;;15.36;84.80;100473.34;5026510;28;20017;-70
2022/09/14 00:03:06;;;;;;;16.42;2.88;;;;;;;15.17;85.70;100469.44;5026364;28;20029;-70
2022/09/14 00:05:34;;;;;;;18.55;2.78;;;;;;;15.28;85.28;100476.25;5026913;28;20123;-70
2022/09/14 00:08:00;;;;;;;21.67;3.55;;;;;;;15.34;84.93;100469.16;5026945;28;20091;-70
2022/09/14 00:10:25;;;;;;;13.77;2.17;;;;;;;15.27;85.34;100477.28;5026072;28;20021;-71
2022/09/14 00:12:51;;;;;;;16.25;2.17;;;;;;;15.31;85.22;100464.91;5027803;28;20030;-71
2022/09/14 00:15:16;;;;;;;24.40;2.47;;;;;;;15.28;85.44;100459.88;5026005;28;20053;-70
2022/09/14 00:17:42;;;;;;;12.63;2.78;;;;;;;15.32;84.97;100463.91;5025603;28;20044;-70
2022/09/14 00:20:08;;;;;;;22.05;3.30;;;;;;;15.04;86.28;100468.50;5025658;28;20026;-71
2022/09/14 00:22:33;;;;;;;16.35;3.13;;;;;;;14.87;87.31;100457.88;5025947;28;20036;-70
2022/09/14 00:24:58;;;;;;;16.50;2.60;;;;;;;15.13;86.19;100450.97;5025786;28;20104;-71
2022/09/14 00:27:24;;;;;;;22.23;2.70;;;;;;;15.28;85.23;100448.97;5025371;28;20017;-71
2022/09/14 00:29:49;;;;;;;26.13;2.80;;;;;;;15.14;85.89;100452.66;5027044;28;20459;-71
2022/09/14 00:32:14;;;;;;;17.88;3.40;;;;;;;15.15;86.13;100448.88;5025456;28;20032;-71
2022/09/14 00:34:40;;;;;;;16.38;2.40;;;;;;;15.15;86.06;100446.16;5023834;28;20017;-71
2022/09/14 00:37:05;;;;;;;13.23;2.60;;;;;;;15.08;86.26;100440.66;5026368;28;20033;-71
2022/09/14 00:39:31;;;;;;;15.63;2.38;;;;;;;14.90;87.39;100435.66;5026796;28;20025;-71
2022/09/14 00:41:56;;;;;;;27.60;3.67;;;;;;;14.84;87.33;100431.00;5025627;28;20027;-71
2022/09/14 00:44:21;;;;;;;23.27;2.85;;;;;;;14.78;87.97;100417.31;5026825;28;20025;-71
2022/09/14 00:46:50;;;;;;;15.32;2.40;;;;;;;14.81;87.58;100425.97;5024937;28;20022;-70
2022/09/14 00:49:17;;;;;;;19.40;2.95;;;;;;;14.95;86.95;100420.63;5018802;28;20024;-70
2022/09/14 00:51:57;;;;;;;25.58;3.30;;;;;;;15.12;86.23;100411.06;5026343;28;20474;-70
2022/09/14 00:54:23;;;;;;;23.05;3.10;;;;;;;15.24;85.13;100406.75;5026903;28;20550;-70
2022/09/14 00:56:48;;;;;;;23.00;2.63;;;;;;;15.25;85.02;100399.41;5025285;28;20104;-70
2022/09/14 00:59:36;;;;;;;16.98;3.63;;;;;;;14.95;86.46;100404.25;5025448;28;20025;-72
2022/09/14 01:02:02;;;;;;;23.33;2.90;;;;;;;14.91;86.49;100407.38;5024546;28;20371;-71
2022/09/14 01:04:27;;;;;;;17.90;3.03;;;;;;;14.90;86.14;100397.50;5027036;28;20025;-70
2022/09/14 01:07:02;;;;;;;16.63;2.83;;;;;;;14.96;85.49;100400.50;5030429;28;20033;-71
2022/09/14 01:09:52;;;;;;;23.17;3.50;;;;;;;15.00;85.12;100396.34;5029046;28;20097;-71
2022/09/14 01:12:41;;;;;;;18.75;2.80;;;;;;;14.84;85.55;100395.56;5027752;28;20029;-70
2022/09/14 01:15:30;;;;;;;23.77;2.97;;;;;;;14.95;85.41;100393.34;5030606;28;20032;-71
2022/09/14 01:18:15;;;;;;;16.17;3.10;;;;;;;14.93;85.12;100398.97;5028955;28;20083;-71
2022/09/14 01:20:55;;;;;;;18.55;3.13;;;;;;;14.83;85.82;100402.06;5024523;28;20025;-70
2022/09/14 01:23:40;;;;;;;18.40;2.67;;;;;;;14.84;85.41;100403.75;5029701;28;20029;-71
2022/09/14 01:26:15;;;;;;;25.63;3.50;;;;;;;14.81;85.22;100404.16;5030366;28;20029;-73
2022/09/14 01:28:44;;;;;;;18.10;3.13;;;;;;;14.83;85.04;100407.53;5028400;28;20076;-71
2022/09/14 01:31:26;;;;;;;16.25;3.05;;;;;;;14.89;84.67;100412.19;5030041;28;20018;-71
2022/09/14 01:34:01;;;;;;;19.92;3.53;;;;;;;14.89;84.84;100423.09;5026064;28;20144;-71
2022/09/14 01:36:29;;;;;;;19.50;3.00;;;;;;;14.57;86.61;100407.28;5029612;28;20033;-71
2022/09/14 01:38:55;;;;;;;20.60;3.60;;;;;;;14.66;85.19;100417.00;5028804;28;20029;-71
2022/09/14 01:41:24;;;;;;;17.00;2.92;;;;;;;14.59;86.45;100410.66;5028799;28;20052;-70
2022/09/14 01:43:56;;;;;;;25.27;3.33;;;;;;;14.48;87.05;100408.47;5029969;28;20029;-71
2022/09/14 01:46:28;;;;;;;14.82;2.72;;;;;;;14.44;87.57;100418.88;5028606;28;20022;-71
2022/09/14 01:48:53;;;;;;;;;;;;;;;14.45;87.68;100414.28;5029463;28;20041;-70
2022/09/14 01:51:28;;;;;;;23.85;2.63;;;;;;;14.26;89.24;100415.75;5028444;28;19909;-71
2022/09/14 01:54:21;;;;;;;25.27;2.55;;;;;;;14.38;88.17;100408.75;5028931;28;20060;-71
2022/09/14 01:56:54;;;;;;;24.25;2.67;;;;;;;14.38;88.24;100403.31;5029533;28;20429;-70
2022/09/14 01:59:26;;;;;;;22.98;2.70;;;;;;;14.55;87.59;100403.94;5028787;28;20018;-71
2022/09/14 02:02:00;;;;;;;15.45;2.83;;;;;;;14.50;87.14;100406.41;5029151;28;20022;-71
2022/09/14 02:04:44;;;;;;;25.40;3.60;;;;;;;14.46;87.38;100405.06;5026733;28;20017;-72
2022/09/14 02:07:10;;;;;;;18.08;2.80;;;;;;;14.24;87.92;100402.34;5028138;28;20076;-70
2022/09/14 02:09:36;;;;;;;18.15;2.83;;;;;;;14.00;89.46;100410.84;5029261;28;20017;-71
2022/09/14 02:12:02;;;;;;;20.75;2.95;;;;;;;14.04;89.41;100412.16;5029205;28;20051;-71
2022/09/14 02:14:28;;;;;;;22.02;3.03;;;;;;;14.05;89.38;100413.84;5028129;28;20018;-71
2022/09/14 02:16:54;;;;;;;26.65;3.05;;;;;;;14.08;89.49;100413.44;5028006;28;20021;-71
2022/09/14 02:19:20;;;;;;;21.73;3.42;;;;;;;13.94;90.59;100417.06;5027767;28;20013;-71
2022/09/14 02:21:45;;;;;;;20.83;3.67;;;;;;;14.15;89.34;100408.97;5027812;28;20013;-71
2022/09/14 02:24:11;;;;;;;17.08;2.65;;;;;;;14.12;89.84;100406.59;5030160;28;20075;-71
2022/09/14 02:26:38;;;;;;;16.60;3.10;;;;;;;14.27;88.79;100406.53;5027884;28;20048;-71
2022/09/14 02:29:04;;;;;;;22.45;2.90;;;;;;;14.08;89.67;100413.44;5028782;28;20029;-71
2022/09/14 02:31:43;;;;;;;27.85;3.10;;;;;;;14.02;90.40;100411.53;5027531;28;20101;-71
2022/09/14 02:34:33;;;;;;;21.90;3.38;;;;;;;13.99;90.64;100398.28;5028064;28;20037;-71
2022/09/14 02:37:18;;;;;;;29.33;3.55;;;;;;;14.21;89.59;100408.16;5017950;28;20088;-72
2022/09/14 02:40:11;;;;;;;17.77;3.53;;;;;;;14.12;89.81;100398.44;5027307;28;20021;-72
2022/09/14 02:42:54;;;;;;;21.27;3.03;;;;;;;14.09;90.45;100396.13;5027544;28;20053;-73
2022/09/14 02:45:26;;;;;;;17.40;2.63;;;;;;;14.26;89.24;100400.25;5027193;28;20041;-72
2022/09/14 02:48:08;;;;;;;31.08;3.13;;;;;;;14.37;88.66;100386.13;5028187;28;20027;-72
2022/09/14 02:50:33;;;;;;;15.15;2.63;;;;;;;14.22;89.00;100398.97;5024002;28;20033;-70
2022/09/14 02:53:20;;;;;;;16.48;3.17;;;;;;;14.20;89.36;100401.03;5003936;28;20053;-70
2022/09/14 02:55:51;;;;;;;15.55;3.00;;;;;;;14.13;89.16;100389.22;5023944;28;20035;-69
2022/09/14 02:58:17;;;;;;;18.30;2.87;;;;;;;14.01;89.76;100391.59;5027847;28;20013;-70
2022/09/14 03:00:45;;;;;;;23.88;3.72;;;;;;;14.16;89.19;100383.41;5029917;28;20027;-71
2022/09/14 03:03:12;;;;;;;24.05;3.28;;;;;;;13.91;90.02;100390.25;5028650;28;20470;-70
2022/09/14 03:05:39;;;;;;;17.58;4.00;;;;;;;13.71;90.95;100390.84;5028366;28;20021;-70
2022/09/14 03:08:04;;;;;;;20.95;2.70;;;;;;;14.11;89.71;100391.31;5028646;28;20026;-71
2022/09/14 03:10:31;;;;;;;15.48;2.80;;;;;;;14.10;88.97;100389.63;5030151;28;20033;-71
2022/09/14 03:12:57;;;;;;;17.92;3.35;;;;;;;14.03;89.25;100394.16;5029988;28;20025;-71
2022/09/14 03:15:23;;;;;;;31.65;4.53;;;;;;;14.02;89.33;100384.31;5009275;28;20047;-71
2022/09/14 03:17:50;;;;;;;23.08;3.10;;;;;;;13.98;89.55;100385.72;5027492;28;20021;-71
2022/09/14 03:20:18;;;;;;;19.83;2.75;;;;;;;13.99;89.78;100388.25;5030746;28;20422;-71
2022/09/14 03:22:44;;;;;;;23.23;3.17;;;;;;;13.77;90.68;100379.22;5026824;28;20029;-70
2022/09/14 03:25:09;;;;;;;25.95;4.07;;;;;;;13.85;90.40;100381.81;5029886;28;20018;-71
2022/09/14 03:27:34;;;;;;;14.48;2.72;;;;;;;13.97;89.78;100378.59;5025156;28;20110;-71
2022/09/14 03:30:00;;;;;;;23.13;3.20;;;;;;;13.87;90.27;100380.78;5029554;28;20029;-71
2022/09/14 03:32:25;;;;;;;14.70;2.63;;;;;;;13.80;90.00;100378.81;5024871;28;20511;-71
2022/09/14 03:34:51;;;;;;;17.50;3.20;;;;;;;13.90;89.88;100378.53;5028192;28;20028;-71
2022/09/14 03:37:16;;;;;;;20.58;3.53;;;;;;;14.07;88.84;100373.66;5028471;28;20442;-71
2022/09/14 03:39:42;;;;;;;17.95;3.00;;;;;;;14.21;87.99;100367.31;5029170;28;20018;-71
2022/09/14 03:42:07;;;;;;;23.80;3.40;;;;;;;14.12;87.72;100365.75;5029198;28;20113;-71
2022/09/14 03:44:32;;;;;;;23.83;3.42;;;;;;;14.03;88.41;100361.50;5029204;28;20025;-71
2022/09/14 03:46:58;;;;;;;20.42;3.38;;;;;;;14.06;88.08;100367.38;5029844;28;20025;-71
2022/09/14 03:49:23;;;;;;;18.95;2.88;;;;;;;14.16;87.30;100361.63;5029503;28;20025;-71
2022/09/14 03:51:48;;;;;;;23.00;3.25;;;;;;;14.00;88.29;100356.41;5030339;28;20021;-71
2022/09/14 03:54:14;;;;;;;20.17;3.08;;;;;;;14.04;88.29;100368.63;5029105;28;20013;-71
2022/09/14 03:56:39;;;;;;;20.75;3.40;;;;;;;13.69;89.27;100360.28;5030229;28;20091;-71
2022/09/14 03:59:08;;;;;;;20.95;4.07;;;;;;;13.53;90.83;100355.03;5028746;28;20434;-71
2022/09/14 04:01:33;;;;;;;15.95;2.88;;;;;;;13.78;89.72;100353.69;5016845;28;20021;-71
2022/09/14 04:03:59;;;;;;;14.90;2.67;;;;;;;13.92;88.97;100351.09;5029243;28;20052;-71
2022/09/14 04:06:24;;;;;;;13.93;3.00;;;;;;;13.87;88.97;100342.66;5028392;28;20033;-71
2022/09/14 04:08:50;;;;;;;23.23;3.90;;;;;;;13.53;90.59;100349.59;5027997;28;20521;-71
2022/09/14 04:11:19;;;;;;;16.95;3.35;;;;;;;13.51;91.20;100341.66;5029395;28;20507;-70
2022/09/14 04:13:45;;;;;;;18.77;3.65;;;;;;;13.60;90.68;100328.75;5029323;28;20075;-70
2022/09/14 04:16:11;;;;;;;18.35;3.38;;;;;;;13.70;90.39;100333.91;5027755;28;20565;-70
2022/09/14 04:18:36;;;;;;;14.15;2.97;;;;;;;13.80;89.39;100324.38;5029049;28;20048;-70
2022/09/14 04:21:09;;;;;;;23.27;3.35;;;;;;;13.81;89.11;100331.50;5029064;28;20084;-70
2022/09/14 04:23:35;;;;;;;16.65;3.88;;;;;;;13.78;88.84;100331.91;5028827;28;20033;-71
2022/09/14 04:26:00;;;;;;;16.08;3.60;;;;;;;13.67;89.58;100334.28;5028577;28;20031;-71
2022/09/14 04:28:26;;;;;;;14.95;3.30;;;;;;;13.52;90.10;100337.03;5029169;28;20033;-71
2022/09/14 04:30:59;;;;;;;15.00;3.17;;;;;;;13.62;90.37;100343.00;5027807;28;20049;-71
2022/09/14 04:33:28;;;;;;;18.58;3.03;;;;;;;13.58;90.27;100336.28;5028092;28;20029;-71
2022/09/14 04:36:01;;;;;;;13.30;3.15;;;;;;;13.56;90.95;100341.06;5025630;28;20024;-71
2022/09/14 04:38:28;;;;;;;16.67;2.85;;;;;;;13.63;90.24;100344.72;5030324;28;20025;-71
2022/09/14 04:40:54;;;;;;;19.80;3.35;;;;;;;13.38;92.30;100340.63;5031107;28;20021;-70
2022/09/14 04:43:19;;;;;;;19.77;3.55;;;;;;;13.48;91.81;100343.88;5032523;28;20036;-71
2022/09/14 04:45:45;;;;;;;15.35;3.58;;;;;;;13.47;92.40;100351.22;5032769;28;20021;-71
2022/09/14 04:48:10;;;;;;;16.83;3.40;;;;;;;13.33;93.20;100356.66;5032293;28;20022;-71
2022/09/14 04:50:35;;;;;;;19.50;3.97;;;;;;;13.63;91.54;100357.44;5031741;28;20486;-71
2022/09/14 04:53:01;;;;;;;15.13;3.53;;;;;;;13.70;91.37;100361.13;5032434;28;20090;-71
2022/09/14 04:55:27;;;;;;;24.45;3.85;;;;;;;13.66;91.46;100355.22;5032611;28;20025;-70
2022/09/14 04:57:52;;;;;;;22.73;3.97;;;;;;;13.67;91.71;100359.59;5032787;28;20175;-71
2022/09/14 05:00:17;;;;;;;15.82;4.00;;;;;;;13.68;91.68;100342.25;5031702;28;20024;-71
2022/09/14 05:02:43;;;;;;;14.38;3.53;;;;;;;13.73;91.97;100350.69;5031459;28;20021;-70
2022/09/14 05:05:08;;;;;;;21.92;4.18;;;;;;;13.84;91.21;100352.91;5030952;28;20049;-70
2022/09/14 05:07:34;;;;;;;28.67;4.93;;;;;;;13.87;91.47;100345.38;5031488;28;20100;-70
2022/09/14 05:09:59;;;;;;;20.58;4.50;;;;;;;14.11;90.41;100347.75;5031263;28;20044;-71
2022/09/14 05:12:24;;;;;;;14.27;4.85;;;;;;;14.11;90.70;100347.75;5030297;28;20037;-70
2022/09/14 05:14:50;;;;;;;22.98;4.05;;;;;;;14.06;90.71;100339.31;5023592;28;20351;-70
2022/09/14 05:17:16;;;;;;;32.45;4.75;;;;;;;14.01;90.93;100336.31;5022085;28;20041;-70
2022/09/14 05:19:41;;;;;;;27.10;4.25;;;;;;;13.84;91.54;100342.03;5023191;28;20017;-71
2022/09/14 05:22:06;;;;;;;23.50;4.30;;;;;;;13.85;91.56;100343.72;5024287;28;20056;-70
2022/09/14 05:24:31;;;;;;;18.67;3.95;;;;;;;14.19;90.03;100344.06;5026553;28;20017;-70
2022/09/14 05:26:57;;;;;;;16.65;3.60;;;;;;;14.18;89.57;100342.38;5026651;28;20470;-71
2022/09/14 05:29:25;;;;;;;25.85;4.60;;;;;;;14.25;89.31;100333.22;5026965;28;20103;-71
2022/09/14 05:31:51;;;;;;;20.60;3.40;;;;;;;14.30;88.88;100336.19;5025210;28;20040;-71
2022/09/14 05:34:16;;;;;;;21.08;3.40;;;;;;;14.45;87.64;100332.56;5026824;28;20033;-71
2022/09/14 05:36:42;;;;;;;21.40;3.53;;;;;;;14.23;88.29;100329.84;5026416;28;20021;-70
2022/09/14 05:39:08;;;;;;;19.38;3.78;;;;;;;14.05;89.49;100340.34;5027228;28;20056;-70
2022/09/14 05:41:33;;;;;;;24.27;4.80;;;;;;;13.99;89.87;100343.84;5021253;28;20112;-70
2022/09/14 05:43:59;;;;;;;16.13;3.60;;;;;;;14.37;88.33;100339.81;5026821;28;20028;-70
2022/09/14 05:46:24;;;;;;;16.73;4.13;;;;;;;14.46;87.51;100339.69;5024980;28;20029;-70
2022/09/14 05:48:50;;;;;;;20.73;4.10;;;;;;;14.37;87.72;100331.66;5024571;28;20052;-70
2022/09/14 05:51:23;;;;;;;18.83;3.63;;;;;;;14.48;87.41;100337.66;5025378;28;20049;-70
2022/09/14 05:53:51;;;;;;;22.75;4.43;;;;;;;14.82;85.42;100336.88;5026128;28;20018;-73
2022/09/14 05:56:17;;;;;;;14.45;3.25;;;;;;;15.13;83.85;100341.88;5025870;28;20033;-70
2022/09/14 05:58:44;;;;;;;24.77;3.78;;;;;;;15.21;83.28;100349.91;5023001;28;20044;-70
2022/09/14 06:01:12;;;;;;;17.10;3.83;;;;;;;15.15;83.57;100345.25;5025252;28;20049;-71
2022/09/14 06:03:38;;;;;;;14.02;3.92;;;;;;;15.38;82.93;100344.94;5024808;28;20065;-70
2022/09/14 06:06:05;;;;;;;14.40;2.95;;;;;;;15.47;81.77;100350.03;5023970;28;20057;-71
2022/09/14 06:08:31;;;;;;;20.08;5.28;;;;;;;15.51;80.94;100350.44;5029499;28;20045;-71
2022/09/14 06:10:56;;;;;;;22.45;7.38;;;;;;;15.46;81.47;100348.34;5027875;28;20025;-71
2022/09/14 06:13:22;;;;;;;16.05;3.70;;;;;;;15.58;81.14;100345.03;5026072;28;20541;-71
2022/09/14 06:15:48;;;;;;;17.85;3.35;;;;;;;15.70;80.21;100343.44;5024931;28;20052;-71
2022/09/14 06:18:13;;;;;;;26.48;3.38;;;;;;;15.52;80.31;100343.09;5027771;28;20250;-71
2022/09/14 06:20:39;;;;;;;14.82;3.22;;;;;;;15.97;78.75;100345.22;5029947;28;20104;-71
2022/09/14 06:23:04;;;;;;;14.63;3.35;;;;;;;15.62;80.43;100340.88;5029786;28;20040;-71
2022/09/14 06:25:30;;;;;;;14.48;2.83;;;;;;;15.77;80.69;100343.44;5029567;28;20061;-71
2022/09/14 06:27:55;;;;;;;18.80;3.30;;;;;;;15.91;80.10;100346.03;5029766;28;20021;-71
2022/09/14 06:30:21;;;;;;;15.25;3.30;;;;;;;15.88;78.87;100346.44;5030965;28;20021;-72
2022/09/14 06:32:46;;;;;;;19.67;3.60;;;;;;;15.57;80.35;100344.19;5021786;28;20037;-72
2022/09/14 06:35:11;;;;;;;28.65;3.95;;;;;;;15.47;80.30;100339.13;5029235;28;20382;-71
2022/09/14 06:37:37;;;;;;;18.13;3.35;;;;;;;15.61;80.38;100337.28;5011976;28;20035;-71
2022/09/14 06:40:03;;;;;;;21.10;3.20;;;;;;;15.74;79.32;100336.53;5029220;28;20033;-72
2022/09/14 06:42:29;;;;;;;18.58;3.20;;;;;;;15.51;80.05;100344.16;5030398;28;20024;-72
2022/09/14 06:44:55;;;;;;;19.67;3.65;;;;;;;15.51;80.16;100338.69;5022167;28;20044;-71
2022/09/14 06:47:20;;;;;;;18.52;3.22;;;;;;;15.19;81.20;100338.31;5019149;28;20395;-71
2022/09/14 06:49:45;;;;;;;12.07;3.00;;;;;;;15.34;80.79;100339.06;5020243;28;20021;-72
2022/09/14 06:52:11;;;;;;;16.48;3.15;;;;;;;15.52;81.03;100334.91;5010662;28;20036;-71
2022/09/14 06:54:36;;;;;;;25.02;3.35;;;;;;;15.50;80.52;100331.56;5018685;28;20036;-72
2022/09/14 06:57:02;;;;;;;18.15;2.92;;;;;;;15.43;80.77;100329.66;5015986;28;20662;-72
2022/09/14 06:59:27;;;;;;;19.30;3.55;;;;;;;15.19;81.90;100335.59;5021189;28;20316;-72
2022/09/14 07:01:53;;;;;;;16.20;3.13;;;;;;;15.32;81.31;100335.69;5020481;28;20024;-72
2022/09/14 07:04:18;;;;;;;14.27;2.88;;;;;;;15.03;82.88;100331.34;5022556;28;20025;-72
2022/09/14 07:06:47;;;;;;;23.15;3.25;;;;;;;15.09;82.36;100343.31;5019357;28;20118;-72
2022/09/14 07:09:14;;;;;;;15.93;3.15;;;;;;;15.27;82.11;100338.19;5021303;28;20128;-72
2022/09/14 07:11:40;;;;;;;18.00;2.78;;;;;;;15.52;81.13;100341.25;5022053;28;20422;-72
2022/09/14 07:14:07;;;;;;;14.77;3.03;;;;;;;15.52;81.65;100345.84;5020500;28;20030;-72
2022/09/14 07:16:34;;;;;;;19.65;3.25;;;;;;;15.34;81.84;100349.97;5021354;28;20737;-72
2022/09/14 07:19:02;;;;;;;16.88;3.30;;;;;;;15.26;82.33;100341.97;5021901;28;20021;-72
2022/09/14 07:21:29;;;;;;;16.55;3.22;;;;;;;15.58;81.62;100339.56;5038102;28;20034;-72
2022/09/14 07:23:55;;;;;;;21.77;3.33;;;;;;;15.76;80.84;100337.16;5020883;28;20133;-72
2022/09/14 07:26:41;;;;;;;20.30;3.13;;;;;;;15.91;80.57;100343.31;5022617;28;20545;-72
2022/09/14 07:29:13;;;;;;;22.55;3.30;;;;;;;15.81;81.25;100342.84;5022666;28;20025;-72
2022/09/14 07:31:42;;;;;;;14.55;2.67;;;;;;;15.73;81.28;100337.56;5020919;28;20021;-72
2022/09/14 07:34:08;;;;;;;18.13;3.05;;;;;;;15.73;81.30;100343.03;5022296;28;20029;-72
2022/09/14 07:36:35;;;;;;;15.77;3.00;;;;;;;15.74;81.40;100344.72;5018671;28;20025;-72
2022/09/14 07:39:02;;;;;;;15.55;3.10;;;;;;;15.73;80.97;100354.78;5020917;28;20033;-72
2022/09/14 07:41:29;;;;;;;18.80;3.45;;;;;;;15.98;80.44;100346.88;5020634;28;20061;-73
2022/09/14 07:43:58;;;;;;;13.80;2.85;;;;;;;16.32;79.79;100336.00;5020245;28;20105;-72
2022/09/14 07:46:26;;;;;;;22.52;3.17;;;;;;;16.50;79.07;100345.28;5021961;28;20087;-72
2022/09/14 07:49:01;;;;;;;11.93;2.78;;;;;;;16.47;79.16;100351.13;5017182;28;20458;-73
2022/09/14 07:51:29;;;;;;;16.35;3.28;;;;;;;16.79;77.11;100349.50;5013821;28;20120;-72
2022/09/14 07:53:54;;;;;;;22.42;3.13;;;;;;;16.79;76.74;100351.38;5020754;28;20021;-72
2022/09/14 07:56:20;;;;;;;21.08;3.10;;;;;;;16.90;77.28;100350.75;5020186;28;20025;-72
2022/09/14 07:58:46;;;;;;;13.10;2.63;;;;;;;16.54;77.38;100354.72;5018038;28;20421;-72
2022/09/14 08:01:18;;;;;;;15.60;2.88;;;;;;;16.74;77.41;100356.63;5018804;28;20083;-72
2022/09/14 08:03:45;;;;;;;10.80;2.67;;;;;;;16.46;78.72;100349.47;5020499;28;20033;-73
2022/09/14 08:06:17;;;;;;;16.70;3.70;;;;;;;16.74;76.94;100345.69;5022537;28;20381;-74
2022/09/14 08:08:46;;;;;;;10.70;2.78;;;;;;;17.04;76.28;100336.00;5020096;28;20406;-73
2022/09/14 08:11:18;;;;;;;18.38;2.78;;;;;;;17.05;75.96;100337.66;5022397;28;20060;-73
2022/09/14 08:13:45;;;;;;;;;;;;;;;17.58;74.17;100326.53;5022140;28;20762;-74
2022/09/14 08:16:11;;;;;;;22.38;3.38;;;;;;;18.07;71.82;100325.06;5019819;28;19947;-73
2022/09/14 08:18:37;;;;;;;18.98;3.35;;;;;;;18.40;71.43;100318.50;5016962;28;20044;-73
2022/09/14 08:21:04;;;;;;;26.08;2.78;;;;;;;18.58;69.74;100326.78;5021556;28;20021;-73
2022/09/14 08:23:29;;;;;;;19.27;2.67;;;;;;;18.01;70.73;100331.41;5020750;28;20017;-73
2022/09/14 08:25:54;;;;;;;16.17;2.08;;;;;;;18.05;70.30;100332.63;5022224;28;20028;-73
2022/09/14 08:28:20;;;;;;;18.58;3.00;;;;;;;17.78;70.04;100331.13;5019685;28;20032;-72
2022/09/14 08:30:46;;;;;;;22.27;2.75;;;;;;;17.50;69.59;100324.06;5020664;28;20033;-72
2022/09/14 08:33:11;;;;;;;17.88;2.08;;;;;;;17.62;69.11;100327.78;5021202;28;20183;-72
2022/09/14 08:35:44;;;;;;;14.18;2.70;;;;;;;17.90;69.45;100312.94;5016989;28;20134;-72
2022/09/14 08:38:09;;;;;;;13.55;2.80;;;;;;;17.52;70.99;100321.94;5018595;28;20021;-72
2022/09/14 08:40:43;;;;;;;19.25;3.10;;;;;;;17.66;70.74;100314.50;5020913;28;20044;-72
2022/09/14 08:43:12;;;;;;;17.35;3.10;;;;;;;17.23;72.14;100317.00;5021976;28;20006;-72
2022/09/14 08:45:40;;;;;;;19.13;3.38;;;;;;;17.24;72.47;100307.75;5019149;28;20168;-72
2022/09/14 08:48:16;;;;;;;12.52;2.90;;;;;;;17.38;71.95;100317.56;5020736;28;20108;-73
2022/09/14 08:50:41;;;;;;;13.50;2.90;;;;;;;17.46;72.07;100322.81;5022367;28;20017;-72
2022/09/14 08:53:07;;;;;;;15.43;2.47;;;;;;;17.68;70.86;100308.81;4999180;28;20036;-72
2022/09/14 08:55:49;;;;;;;16.42;2.97;;;;;;;18.11;69.75;100314.47;5020692;28;20018;-72
2022/09/14 08:58:26;;;;;;;11.88;2.50;;;;;;;18.34;68.51;100313.91;5022792;28;20017;-72
2022/09/14 09:01:29;;;;;;;14.35;2.28;;;;;;;18.69;67.53;100306.03;5014046;28;20025;-72
2022/09/14 09:04:13;;;;;;;21.40;3.42;;;;;;;18.62;66.29;100306.06;5021130;28;20025;-73
2022/09/14 09:07:03;;;;;;;11.95;2.10;;;;;;;18.57;63.68;100303.16;5022446;28;20161;-72
2022/09/14 09:09:38;;;;;;;17.48;2.53;;;;;;;18.17;63.39;100302.63;5022538;28;20466;-72
2022/09/14 09:12:04;;;;;;;10.48;1.90;;;;;;;18.14;64.15;100303.94;5022419;28;20060;-72
2022/09/14 09:14:38;;;;;;;15.63;2.20;;;;;;;18.21;62.97;100297.56;5021753;28;20021;-72
2022/09/14 09:17:12;;;;;;;14.02;2.25;;;;;;;18.86;62.50;100289.84;5023541;28;20049;-73
2022/09/14 09:19:56;;;;;;;14.70;2.45;;;;;;;18.25;63.04;100293.28;5021364;28;20414;-72
2022/09/14 09:22:24;;;;;;;18.25;2.90;;;;;;;18.60;63.10;100286.25;5021571;28;20108;-73
2022/09/14 09:24:53;;;;;;;12.93;2.03;;;;;;;18.42;60.43;100283.47;5026417;28;20022;-73
2022/09/14 09:27:19;;;;;;;9.15;2.40;;;;;;;18.32;61.41;100277.63;5019628;28;20030;-73
2022/09/14 09:29:44;;;;;;;15.23;2.33;;;;;;;18.37;61.41;100283.28;5024943;28;20034;-73
2022/09/14 09:32:15;;;;;;;13.55;2.03;;;;;;;18.64;60.52;100292.94;5026772;28;20023;-73
2022/09/14 09:34:40;;;;;;;11.40;2.17;;;;;;;18.99;57.26;100281.47;5026174;28;20025;-73
2022/09/14 09:37:13;;;;;;;10.95;2.20;;;;;;;19.30;58.09;100274.13;5026969;28;20108;-73
2022/09/14 09:39:39;;;;;;;11.35;2.13;;;;;;;19.18;58.00;100276.81;5027022;28;20057;-73
2022/09/14 09:42:27;;;;;;;13.60;2.58;;;;;;;19.32;57.43;100278.34;5026298;28;20051;-73
2022/09/14 09:44:52;;;;;;;13.50;2.30;;;;;;;18.82;57.88;100280.38;5023053;28;20038;-73
2022/09/14 09:47:25;;;;;;;11.90;2.22;;;;;;;18.78;56.90;100273.66;5016056;28;20096;-73
2022/09/14 09:49:58;;;;;;;12.43;1.65;;;;;;;18.64;57.02;100276.50;5024490;28;20064;-73
2022/09/14 09:52:24;;;;;;;7.50;2.08;;;;;;;18.61;58.26;100260.50;5017668;28;20018;-74
2022/09/14 09:54:52;;;;;;;13.93;2.78;;;;;;;18.75;58.71;100254.94;5022575;28;20112;-73
2022/09/14 09:57:22;;;;;;;14.90;2.33;;;;;;;18.54;59.41;100248.78;5023570;28;20033;-73
2022/09/14 09:59:47;;;;;;;10.88;2.25;;;;;;;18.49;59.98;100262.31;5017644;28;20057;-73
2022/09/14 10:02:22;;;;;;;11.63;2.30;;;;;;;18.62;59.63;100251.22;5019834;28;20045;-73
2022/09/14 10:05:03;;;;;;;10.88;1.85;;;;;;;18.86;59.23;100248.69;5022053;28;20026;-73
2022/09/14 10:07:32;;;;;;;14.90;2.42;;;;;;;18.75;58.69;100254.94;5021954;28;20045;-74
2022/09/14 10:10:07;;;;;;;23.35;2.60;;;;;;;18.89;58.69;100256.47;5019104;28;20032;-73
2022/09/14 10:12:35;;;;;;;12.50;2.67;;;;;;;19.01;58.58;100265.59;5020493;28;20025;-73
2022/09/14 10:15:19;;;;;;;10.77;2.28;;;;;;;19.35;58.70;100250.41;5021448;28;20068;-73
2022/09/14 10:18:12;;;;;;;9.70;2.67;;;;;;;19.32;58.56;100258.28;5019862;28;20033;-74
2022/09/14 10:20:52;;;;;;;11.48;2.75;;;;;;;18.65;58.40;100267.25;5020572;28;20033;-73
2022/09/14 10:23:18;;;;;;;11.35;2.03;;;;;;;18.71;58.75;100249.03;5016139;28;20045;-73
2022/09/14 10:25:44;;;;;;;14.45;2.03;;;;;;;18.39;59.91;100262.00;5022415;28;20022;-73
2022/09/14 10:28:22;;;;;;;13.45;1.80;;;;;;;18.15;60.86;100261.75;5022656;28;20022;-73
2022/09/14 10:30:59;;;;;;;17.67;2.50;;;;;;;18.17;62.00;100259.63;5022034;28;20022;-73
2022/09/14 10:33:25;;;;;;;10.63;2.08;;;;;;;18.38;60.96;100260.31;5021566;28;20083;-73
2022/09/14 10:35:57;;;;;;;9.02;1.80;;;;;;;18.65;60.93;100247.22;5021636;28;20022;-72
2022/09/14 10:38:29;;;;;;;13.93;2.10;;;;;;;19.03;59.89;100257.97;5020320;28;20075;-72
2022/09/14 10:41:12;;;;;;;33.63;2.83;;;;;;;19.07;59.11;100259.22;5021537;28;20104;-74
2022/09/14 10:44:21;;;;;;;18.48;2.42;;;;;;;18.76;59.42;100262.09;5021133;28;20581;-73
2022/09/14 10:47:18;;;;;;;8.43;2.20;;;;;;;18.13;61.56;100258.41;5020935;28;20044;-73
2022/09/14 10:49:59;;;;;;;8.77;2.25;;;;;;;18.13;61.27;100266.63;5020294;28;20044;-74
2022/09/14 10:52:40;;;;;;;10.23;2.63;;;;;;;18.16;61.49;100268.91;5018985;28;20078;-71
2022/09/14 10:55:35;;;;;;;11.05;2.42;;;;;;;18.05;61.20;100283.31;5019969;28;20041;-71
2022/09/14 10:58:19;;;;;;;10.30;2.13;;;;;;;18.11;61.09;100260.53;5026392;28;20040;-72
2022/09/14 11:01:13;;;;;;;13.35;3.05;;;;;;;18.26;60.71;100253.91;5020525;28;20079;-72
2022/09/14 11:04:07;;;;;;;12.63;2.20;;;;;;;18.12;61.10;100250.41;5021808;28;20028;-72
2022/09/14 11:06:52;;;;;;;13.18;2.65;;;;;;;18.21;61.07;100259.19;5022979;28;20500;-72
2022/09/14 11:09:48;;;;;;;15.85;2.78;;;;;;;18.35;60.73;100266.25;5020144;28;20108;-71
2022/09/14 11:13:00;;;;;;;17.50;2.63;;;;;;;18.69;60.17;100257.50;5020625;28;20063;-72
2022/09/14 11:15:34;;;;;;;;;;;;;;;19.02;58.71;100270.03;5016298;28;20052;-72
2022/09/14 11:18:21;;;;;;;16.20;2.28;;;;;;;19.23;58.75;100269.59;5015808;28;20259;-72
2022/09/14 11:21:03;;;;;;;14.65;2.53;;;;;;;19.32;58.38;100272.00;5019838;28;20033;-72
2022/09/14 11:23:50;;;;;;;22.02;2.40;;;;;;;19.89;57.59;100272.53;5019346;28;20025;-72
2022/09/14 11:26:21;;;;;;;10.80;2.28;;;;;;;20.32;56.02;100262.09;5023127;28;20688;-72
2022/09/14 11:29:10;;;;;;;13.93;2.58;;;;;;;19.63;56.70;100252.63;5022301;28;20033;-71
2022/09/14 11:31:44;;;;;;;12.50;2.65;;;;;;;19.35;58.01;100238.59;5017837;28;20029;-72
2022/09/14 11:34:28;;;;;;;12.18;2.42;;;;;;;19.28;58.42;100248.81;5021853;28;20082;-72